sensor_id;sensor_type;location;lat;lon;timestamp;temperature;humidity
68011;DHT22;54794;48.348;7.878;2022-08-03T00:01:27;23.80;46.80
68011;DHT22;54794;48.348;7.878;2022-08-03T00:03:54;23.80;46.90
68011;DHT22;54794;48.348;7.878;2022-08-03T00:06:21;23.70;46.90
68011;DHT22;54794;48.348;7.878;2022-08-03T00:08:48;23.70;47.00
68011;DHT22;54794;48.348;7.878;2022-08-03T00:11:15;23.70;47.10
68011;DHT22;54794;48.348;7.878;2022-08-03T00:13:42;23.70;47.20
68011;DHT22;54794;48.348;7.878;2022-08-03T00:16:09;23.60;47.30
68011;DHT22;54794;48.348;7.878;2022-08-03T00:18:37;23.60;47.50
68011;DHT22;54794;48.348;7.878;2022-08-03T00:21:05;23.60;47.60
68011;DHT22;54794;48.348;7.878;2022-08-03T00:23:32;23.50;47.60
68011;DHT22;54794;48.348;7.878;2022-08-03T00:26:19;23.50;47.60
68011;DHT22;54794;48.348;7.878;2022-08-03T00:28:46;23.50;47.80
68011;DHT22;54794;48.348;7.878;2022-08-03T00:31:13;23.40;47.80
68011;DHT22;54794;48.348;7.878;2022-08-03T00:33:41;23.40;47.90
68011;DHT22;54794;48.348;7.878;2022-08-03T00:36:27;23.40;47.90
68011;DHT22;54794;48.348;7.878;2022-08-03T00:38:55;23.40;48.10
68011;DHT22;54794;48.348;7.878;2022-08-03T00:41:22;23.40;48.20
68011;DHT22;54794;48.348;7.878;2022-08-03T00:43:49;23.30;48.10
68011;DHT22;54794;48.348;7.878;2022-08-03T00:46:16;23.30;48.30
68011;DHT22;54794;48.348;7.878;2022-08-03T00:48:51;23.30;48.20
68011;DHT22;54794;48.348;7.878;2022-08-03T00:51:19;23.30;48.90
68011;DHT22;54794;48.348;7.878;2022-08-03T00:53:48;23.20;48.70
68011;DHT22;54794;48.348;7.878;2022-08-03T00:56:16;23.20;48.70
68011;DHT22;54794;48.348;7.878;2022-08-03T00:58:44;23.20;48.90
68011;DHT22;54794;48.348;7.878;2022-08-03T01:01:13;23.20;49.10
68011;DHT22;54794;48.348;7.878;2022-08-03T01:03:40;23.10;49.10
68011;DHT22;54794;48.348;7.878;2022-08-03T01:11:47;23.10;49.60
68011;DHT22;54794;48.348;7.878;2022-08-03T01:14:40;23.10;50.10
68011;DHT22;54794;48.348;7.878;2022-08-03T01:17:21;23.00;49.80
68011;DHT22;54794;48.348;7.878;2022-08-03T01:20:09;23.00;50.40
68011;DHT22;54794;48.348;7.878;2022-08-03T01:25:39;23.00;50.10
68011;DHT22;54794;48.348;7.878;2022-08-03T01:31:07;23.00;49.90
68011;DHT22;54794;48.348;7.878;2022-08-03T01:33:43;23.00;49.80
68011;DHT22;54794;48.348;7.878;2022-08-03T01:36:18;22.90;50.40
68011;DHT22;54794;48.348;7.878;2022-08-03T01:38:53;23.00;50.20
68011;DHT22;54794;48.348;7.878;2022-08-03T01:41:32;22.90;50.20
68011;DHT22;54794;48.348;7.878;2022-08-03T01:44:02;22.90;50.70
68011;DHT22;54794;48.348;7.878;2022-08-03T01:46:57;22.90;50.20
68011;DHT22;54794;48.348;7.878;2022-08-03T01:49:28;22.90;50.30
68011;DHT22;54794;48.348;7.878;2022-08-03T01:51:57;22.90;50.20
68011;DHT22;54794;48.348;7.878;2022-08-03T01:54:44;22.80;50.30
68011;DHT22;54794;48.348;7.878;2022-08-03T01:57:14;22.80;50.70
68011;DHT22;54794;48.348;7.878;2022-08-03T01:59:43;22.80;50.50
68011;DHT22;54794;48.348;7.878;2022-08-03T02:02:13;22.70;50.30
68011;DHT22;54794;48.348;7.878;2022-08-03T02:05:00;22.70;51.00
68011;DHT22;54794;48.348;7.878;2022-08-03T02:07:29;22.70;50.50
68011;DHT22;54794;48.348;7.878;2022-08-03T02:09:58;22.80;50.60
68011;DHT22;54794;48.348;7.878;2022-08-03T02:12:27;22.70;50.60
68011;DHT22;54794;48.348;7.878;2022-08-03T02:14:58;22.70;50.80
68011;DHT22;54794;48.348;7.878;2022-08-03T02:17:27;22.70;51.40
68011;DHT22;54794;48.348;7.878;2022-08-03T02:20:06;22.70;50.90
68011;DHT22;54794;48.348;7.878;2022-08-03T02:22:39;22.80;50.50
68011;DHT22;54794;48.348;7.878;2022-08-03T02:25:11;22.70;50.90
68011;DHT22;54794;48.348;7.878;2022-08-03T02:27:45;22.70;51.10
68011;DHT22;54794;48.348;7.878;2022-08-03T02:30:18;22.70;51.20
68011;DHT22;54794;48.348;7.878;2022-08-03T02:32:54;22.60;51.10
68011;DHT22;54794;48.348;7.878;2022-08-03T02:35:25;22.60;51.70
68011;DHT22;54794;48.348;7.878;2022-08-03T02:37:58;22.60;51.30
68011;DHT22;54794;48.348;7.878;2022-08-03T02:40:29;22.60;51.70
68011;DHT22;54794;48.348;7.878;2022-08-03T02:43:00;22.60;51.50
68011;DHT22;54794;48.348;7.878;2022-08-03T02:45:31;22.60;51.70
68011;DHT22;54794;48.348;7.878;2022-08-03T02:48:03;22.60;51.70
68011;DHT22;54794;48.348;7.878;2022-08-03T02:50:33;22.50;51.70
68011;DHT22;54794;48.348;7.878;2022-08-03T02:53:02;22.50;51.80
68011;DHT22;54794;48.348;7.878;2022-08-03T02:55:32;22.50;51.90
68011;DHT22;54794;48.348;7.878;2022-08-03T02:58:02;22.50;52.10
68011;DHT22;54794;48.348;7.878;2022-08-03T03:00:33;22.50;52.00
68011;DHT22;54794;48.348;7.878;2022-08-03T03:03:01;22.40;52.30
68011;DHT22;54794;48.348;7.878;2022-08-03T03:05:30;22.40;52.10
68011;DHT22;54794;48.348;7.878;2022-08-03T03:08:19;22.40;52.10
68011;DHT22;54794;48.348;7.878;2022-08-03T03:10:53;22.40;52.20
68011;DHT22;54794;48.348;7.878;2022-08-03T03:13:22;22.40;52.20
68011;DHT22;54794;48.348;7.878;2022-08-03T03:15:51;22.30;52.20
68011;DHT22;54794;48.348;7.878;2022-08-03T03:18:20;22.30;52.30
68011;DHT22;54794;48.348;7.878;2022-08-03T03:20:50;22.30;52.40
68011;DHT22;54794;48.348;7.878;2022-08-03T03:23:21;22.20;52.50
68011;DHT22;54794;48.348;7.878;2022-08-03T03:25:51;22.30;52.70
68011;DHT22;54794;48.348;7.878;2022-08-03T03:28:19;22.20;52.60
68011;DHT22;54794;48.348;7.878;2022-08-03T03:30:46;22.20;52.70
68011;DHT22;54794;48.348;7.878;2022-08-03T03:33:22;22.20;52.80
68011;DHT22;54794;48.348;7.878;2022-08-03T03:35:49;22.10;52.80
68011;DHT22;54794;48.348;7.878;2022-08-03T03:38:20;22.10;52.90
68011;DHT22;54794;48.348;7.878;2022-08-03T03:40:47;22.10;53.00
68011;DHT22;54794;48.348;7.878;2022-08-03T03:43:14;22.10;53.00
68011;DHT22;54794;48.348;7.878;2022-08-03T03:45:44;22.10;53.00
68011;DHT22;54794;48.348;7.878;2022-08-03T03:48:12;22.10;53.20
68011;DHT22;54794;48.348;7.878;2022-08-03T03:50:40;22.10;53.30
68011;DHT22;54794;48.348;7.878;2022-08-03T03:53:12;22.10;52.90
68011;DHT22;54794;48.348;7.878;2022-08-03T03:55:41;22.10;53.20
68011;DHT22;54794;48.348;7.878;2022-08-03T03:58:29;22.10;53.10
68011;DHT22;54794;48.348;7.878;2022-08-03T04:00:57;22.10;53.20
68011;DHT22;54794;48.348;7.878;2022-08-03T04:03:24;22.10;53.40
68011;DHT22;54794;48.348;7.878;2022-08-03T04:05:51;22.10;53.50
68011;DHT22;54794;48.348;7.878;2022-08-03T04:08:36;22.10;53.50
68011;DHT22;54794;48.348;7.878;2022-08-03T04:11:33;22.10;53.50
68011;DHT22;54794;48.348;7.878;2022-08-03T04:14:35;22.10;54.00
68011;DHT22;54794;48.348;7.878;2022-08-03T04:17:06;22.10;54.20
68011;DHT22;54794;48.348;7.878;2022-08-03T04:19:46;22.10;53.60
68011;DHT22;54794;48.348;7.878;2022-08-03T04:22:24;22.10;54.00
68011;DHT22;54794;48.348;7.878;2022-08-03T04:25:00;22.10;54.10
68011;DHT22;54794;48.348;7.878;2022-08-03T04:27:34;22.20;54.30
68011;DHT22;54794;48.348;7.878;2022-08-03T04:30:04;22.10;54.00
68011;DHT22;54794;48.348;7.878;2022-08-03T04:32:33;22.20;54.00
68011;DHT22;54794;48.348;7.878;2022-08-03T04:35:02;22.20;53.90
68011;DHT22;54794;48.348;7.878;2022-08-03T04:37:44;22.30;54.10
68011;DHT22;54794;48.348;7.878;2022-08-03T04:40:24;22.30;54.70
68011;DHT22;54794;48.348;7.878;2022-08-03T04:43:01;22.30;54.10
68011;DHT22;54794;48.348;7.878;2022-08-03T04:45:29;22.30;54.10
68011;DHT22;54794;48.348;7.878;2022-08-03T04:47:58;22.30;54.10
68011;DHT22;54794;48.348;7.878;2022-08-03T04:50:28;22.30;54.20
68011;DHT22;54794;48.348;7.878;2022-08-03T04:52:56;22.30;54.30
68011;DHT22;54794;48.348;7.878;2022-08-03T04:55:30;22.30;54.20
68011;DHT22;54794;48.348;7.878;2022-08-03T04:58:00;22.30;54.80
68011;DHT22;54794;48.348;7.878;2022-08-03T05:00:28;22.30;54.50
68011;DHT22;54794;48.348;7.878;2022-08-03T05:02:55;22.30;54.50
68011;DHT22;54794;48.348;7.878;2022-08-03T05:05:22;22.30;54.60
68011;DHT22;54794;48.348;7.878;2022-08-03T05:07:50;22.30;54.60
68011;DHT22;54794;48.348;7.878;2022-08-03T05:10:18;22.30;54.70
68011;DHT22;54794;48.348;7.878;2022-08-03T05:12:47;22.30;54.90
68011;DHT22;54794;48.348;7.878;2022-08-03T05:15:14;22.30;54.90
68011;DHT22;54794;48.348;7.878;2022-08-03T05:17:41;22.30;55.00
68011;DHT22;54794;48.348;7.878;2022-08-03T05:20:10;22.30;55.00
68011;DHT22;54794;48.348;7.878;2022-08-03T05:22:37;22.30;54.90
68011;DHT22;54794;48.348;7.878;2022-08-03T05:25:04;22.30;55.10
68011;DHT22;54794;48.348;7.878;2022-08-03T05:27:31;22.40;55.10
68011;DHT22;54794;48.348;7.878;2022-08-03T05:29:58;22.40;55.20
68011;DHT22;54794;48.348;7.878;2022-08-03T05:32:45;22.40;55.10
68011;DHT22;54794;48.348;7.878;2022-08-03T05:35:12;22.40;55.30
68011;DHT22;54794;48.348;7.878;2022-08-03T05:38:01;22.40;55.40
68011;DHT22;54794;48.348;7.878;2022-08-03T05:40:29;22.40;55.40
68011;DHT22;54794;48.348;7.878;2022-08-03T05:42:56;22.40;55.60
68011;DHT22;54794;48.348;7.878;2022-08-03T05:45:24;22.40;55.60
68011;DHT22;54794;48.348;7.878;2022-08-03T05:47:54;22.50;56.40
68011;DHT22;54794;48.348;7.878;2022-08-03T05:50:21;22.50;55.80
68011;DHT22;54794;48.348;7.878;2022-08-03T05:52:48;22.50;55.80
68011;DHT22;54794;48.348;7.878;2022-08-03T05:55:16;22.60;55.60
68011;DHT22;54794;48.348;7.878;2022-08-03T05:57:45;22.60;55.50
68011;DHT22;54794;48.348;7.878;2022-08-03T06:00:15;22.60;55.60
68011;DHT22;54794;48.348;7.878;2022-08-03T06:02:42;22.70;55.70
68011;DHT22;54794;48.348;7.878;2022-08-03T06:05:10;22.70;55.90
68011;DHT22;54794;48.348;7.878;2022-08-03T06:07:37;22.80;55.90
68011;DHT22;54794;48.348;7.878;2022-08-03T06:10:04;22.80;55.70
68011;DHT22;54794;48.348;7.878;2022-08-03T06:12:52;22.90;56.00
68011;DHT22;54794;48.348;7.878;2022-08-03T06:15:19;23.00;56.00
68011;DHT22;54794;48.348;7.878;2022-08-03T06:17:47;23.00;55.90
68011;DHT22;54794;48.348;7.878;2022-08-03T06:20:17;23.10;55.80
68011;DHT22;54794;48.348;7.878;2022-08-03T06:22:46;23.20;55.70
68011;DHT22;54794;48.348;7.878;2022-08-03T06:25:17;23.20;55.80
68011;DHT22;54794;48.348;7.878;2022-08-03T06:27:47;23.30;55.80
68011;DHT22;54794;48.348;7.878;2022-08-03T06:30:14;23.40;55.80
68011;DHT22;54794;48.348;7.878;2022-08-03T06:32:47;23.50;55.80
68011;DHT22;54794;48.348;7.878;2022-08-03T06:35:18;23.60;55.70
68011;DHT22;54794;48.348;7.878;2022-08-03T06:37:47;23.60;55.60
68011;DHT22;54794;48.348;7.878;2022-08-03T06:40:22;23.70;55.60
68011;DHT22;54794;48.348;7.878;2022-08-03T06:42:57;23.80;56.00
68011;DHT22;54794;48.348;7.878;2022-08-03T06:45:26;23.90;55.60
68011;DHT22;54794;48.348;7.878;2022-08-03T06:48:10;24.00;55.80
68011;DHT22;54794;48.348;7.878;2022-08-03T06:50:40;24.10;55.80
68011;DHT22;54794;48.348;7.878;2022-08-03T06:53:08;24.20;55.60
68011;DHT22;54794;48.348;7.878;2022-08-03T06:55:45;24.30;55.40
68011;DHT22;54794;48.348;7.878;2022-08-03T06:58:17;24.50;55.30
68011;DHT22;54794;48.348;7.878;2022-08-03T07:00:44;24.50;55.10
68011;DHT22;54794;48.348;7.878;2022-08-03T07:03:11;24.70;55.00
68011;DHT22;54794;48.348;7.878;2022-08-03T07:05:38;24.80;54.90
68011;DHT22;54794;48.348;7.878;2022-08-03T07:08:05;24.90;54.70
68011;DHT22;54794;48.348;7.878;2022-08-03T07:10:33;25.00;54.60
68011;DHT22;54794;48.348;7.878;2022-08-03T07:13:00;25.10;54.70
68011;DHT22;54794;48.348;7.878;2022-08-03T07:15:27;25.20;54.70
68011;DHT22;54794;48.348;7.878;2022-08-03T07:18:14;25.30;54.50
68011;DHT22;54794;48.348;7.878;2022-08-03T07:20:40;25.50;54.50
68011;DHT22;54794;48.348;7.878;2022-08-03T07:23:08;25.60;54.20
68011;DHT22;54794;48.348;7.878;2022-08-03T07:25:37;25.70;54.10
68011;DHT22;54794;48.348;7.878;2022-08-03T07:28:04;25.80;53.80
68011;DHT22;54794;48.348;7.878;2022-08-03T07:30:31;25.90;53.70
68011;DHT22;54794;48.348;7.878;2022-08-03T07:32:58;26.00;53.60
68011;DHT22;54794;48.348;7.878;2022-08-03T07:35:25;26.20;53.50
68011;DHT22;54794;48.348;7.878;2022-08-03T07:37:52;26.20;53.30
68011;DHT22;54794;48.348;7.878;2022-08-03T07:40:21;26.30;53.20
68011;DHT22;54794;48.348;7.878;2022-08-03T07:42:48;26.40;53.10
68011;DHT22;54794;48.348;7.878;2022-08-03T07:45:19;26.50;53.30
68011;DHT22;54794;48.348;7.878;2022-08-03T07:47:48;26.60;52.90
68011;DHT22;54794;48.348;7.878;2022-08-03T07:50:20;26.70;52.90
68011;DHT22;54794;48.348;7.878;2022-08-03T07:52:48;26.80;52.60
68011;DHT22;54794;48.348;7.878;2022-08-03T07:55:19;27.00;52.70
68011;DHT22;54794;48.348;7.878;2022-08-03T07:58:03;27.10;52.40
68011;DHT22;54794;48.348;7.878;2022-08-03T08:00:32;27.20;52.20
68011;DHT22;54794;48.348;7.878;2022-08-03T08:02:59;27.30;52.10
68011;DHT22;54794;48.348;7.878;2022-08-03T08:05:27;27.40;51.90
68011;DHT22;54794;48.348;7.878;2022-08-03T08:07:54;27.60;51.80
68011;DHT22;54794;48.348;7.878;2022-08-03T08:10:22;27.70;51.50
68011;DHT22;54794;48.348;7.878;2022-08-03T08:12:49;27.80;51.30
68011;DHT22;54794;48.348;7.878;2022-08-03T08:15:16;27.90;52.20
68011;DHT22;54794;48.348;7.878;2022-08-03T08:17:48;28.00;51.30
68011;DHT22;54794;48.348;7.878;2022-08-03T08:20:28;28.10;51.00
68011;DHT22;54794;48.348;7.878;2022-08-03T08:23:07;28.20;51.10
68011;DHT22;54794;48.348;7.878;2022-08-03T08:25:55;28.40;50.80
68011;DHT22;54794;48.348;7.878;2022-08-03T08:28:21;28.50;50.90
68011;DHT22;54794;48.348;7.878;2022-08-03T08:30:59;28.60;50.70
68011;DHT22;54794;48.348;7.878;2022-08-03T08:33:27;28.80;50.40
68011;DHT22;54794;48.348;7.878;2022-08-03T08:36:13;28.80;50.70
68011;DHT22;54794;48.348;7.878;2022-08-03T08:38:41;29.00;49.90
68011;DHT22;54794;48.348;7.878;2022-08-03T08:41:11;29.10;50.00
68011;DHT22;54794;48.348;7.878;2022-08-03T08:43:40;29.20;49.60
68011;DHT22;54794;48.348;7.878;2022-08-03T08:46:11;29.30;49.10
68011;DHT22;54794;48.348;7.878;2022-08-03T08:48:50;29.40;48.40
68011;DHT22;54794;48.348;7.878;2022-08-03T08:51:20;29.50;48.90
68011;DHT22;54794;48.348;7.878;2022-08-03T08:53:52;29.60;48.90
68011;DHT22;54794;48.348;7.878;2022-08-03T08:56:23;29.70;48.10
68011;DHT22;54794;48.348;7.878;2022-08-03T08:58:53;29.80;48.40
68011;DHT22;54794;48.348;7.878;2022-08-03T09:01:24;29.90;48.70
68011;DHT22;54794;48.348;7.878;2022-08-03T09:03:52;30.00;49.20
68011;DHT22;54794;48.348;7.878;2022-08-03T09:06:20;30.10;48.70
68011;DHT22;54794;48.348;7.878;2022-08-03T09:08:48;30.30;48.80
68011;DHT22;54794;48.348;7.878;2022-08-03T09:11:16;30.40;49.10
68011;DHT22;54794;48.348;7.878;2022-08-03T09:14:06;30.50;49.10
68011;DHT22;54794;48.348;7.878;2022-08-03T09:16:35;30.70;49.40
68011;DHT22;54794;48.348;7.878;2022-08-03T09:19:12;30.90;48.80
68011;DHT22;54794;48.348;7.878;2022-08-03T09:21:40;31.00;49.60
68011;DHT22;54794;48.348;7.878;2022-08-03T09:24:07;31.20;49.00
68011;DHT22;54794;48.348;7.878;2022-08-03T09:26:54;31.40;48.70
68011;DHT22;54794;48.348;7.878;2022-08-03T09:29:21;31.50;49.20
68011;DHT22;54794;48.348;7.878;2022-08-03T09:31:48;31.60;48.30
68011;DHT22;54794;48.348;7.878;2022-08-03T09:34:16;31.80;48.30
68011;DHT22;54794;48.348;7.878;2022-08-03T09:36:48;31.90;48.00
68011;DHT22;54794;48.348;7.878;2022-08-03T09:39:18;32.10;47.80
68011;DHT22;54794;48.348;7.878;2022-08-03T09:42:09;32.20;47.80
68011;DHT22;54794;48.348;7.878;2022-08-03T09:44:42;32.30;47.70
68011;DHT22;54794;48.348;7.878;2022-08-03T09:47:13;32.40;47.50
68011;DHT22;54794;48.348;7.878;2022-08-03T09:49:56;32.60;47.00
68011;DHT22;54794;48.348;7.878;2022-08-03T09:52:38;32.70;46.10
68011;DHT22;54794;48.348;7.878;2022-08-03T09:55:18;32.80;45.90
68011;DHT22;54794;48.348;7.878;2022-08-03T09:58:10;32.90;46.10
68011;DHT22;54794;48.348;7.878;2022-08-03T10:01:00;33.00;46.40
68011;DHT22;54794;48.348;7.878;2022-08-03T10:03:34;33.10;46.00
68011;DHT22;54794;48.348;7.878;2022-08-03T10:06:22;33.20;46.00
68011;DHT22;54794;48.348;7.878;2022-08-03T10:09:14;33.40;46.10
68011;DHT22;54794;48.348;7.878;2022-08-03T10:11:43;33.50;45.20
68011;DHT22;54794;48.348;7.878;2022-08-03T10:14:12;33.60;45.40
68011;DHT22;54794;48.348;7.878;2022-08-03T10:16:46;33.70;45.30
68011;DHT22;54794;48.348;7.878;2022-08-03T10:19:15;33.80;44.70
68011;DHT22;54794;48.348;7.878;2022-08-03T10:21:49;33.90;44.50
68011;DHT22;54794;48.348;7.878;2022-08-03T10:25:03;33.90;43.80
68011;DHT22;54794;48.348;7.878;2022-08-03T10:28:01;34.00;44.20
68011;DHT22;54794;48.348;7.878;2022-08-03T10:30:33;34.10;43.80
68011;DHT22;54794;48.348;7.878;2022-08-03T10:33:10;34.20;44.10
68011;DHT22;54794;48.348;7.878;2022-08-03T10:36:04;34.20;43.40
68011;DHT22;54794;48.348;7.878;2022-08-03T10:38:37;34.30;43.50
68011;DHT22;54794;48.348;7.878;2022-08-03T10:41:09;34.40;43.40
68011;DHT22;54794;48.348;7.878;2022-08-03T10:43:45;34.50;43.90
68011;DHT22;54794;48.348;7.878;2022-08-03T10:46:18;34.60;43.20
68011;DHT22;54794;48.348;7.878;2022-08-03T10:48:48;34.70;43.60
68011;DHT22;54794;48.348;7.878;2022-08-03T10:51:18;34.80;43.50
68011;DHT22;54794;48.348;7.878;2022-08-03T10:53:46;34.90;43.40
68011;DHT22;54794;48.348;7.878;2022-08-03T11:02:14;35.30;42.90
68011;DHT22;54794;48.348;7.878;2022-08-03T11:05:37;35.40;42.60
68011;DHT22;54794;48.348;7.878;2022-08-03T11:08:31;35.50;42.50
68011;DHT22;54794;48.348;7.878;2022-08-03T11:14:11;35.80;41.90
68011;DHT22;54794;48.348;7.878;2022-08-03T11:16:46;36.00;42.20
68011;DHT22;54794;48.348;7.878;2022-08-03T11:19:17;36.10;41.40
68011;DHT22;54794;48.348;7.878;2022-08-03T11:21:54;36.20;41.20
68011;DHT22;54794;48.348;7.878;2022-08-03T11:35:22;36.60;39.50
68011;DHT22;54794;48.348;7.878;2022-08-03T11:40:45;36.70;38.10
68011;DHT22;54794;48.348;7.878;2022-08-03T11:46:11;36.90;38.30
68011;DHT22;54794;48.348;7.878;2022-08-03T11:49:03;37.00;38.00
68011;DHT22;54794;48.348;7.878;2022-08-03T11:51:36;37.10;37.90
68011;DHT22;54794;48.348;7.878;2022-08-03T11:54:06;37.20;37.90
68011;DHT22;54794;48.348;7.878;2022-08-03T11:56:47;37.30;37.60
68011;DHT22;54794;48.348;7.878;2022-08-03T11:59:15;37.40;36.50
68011;DHT22;54794;48.348;7.878;2022-08-03T12:01:48;37.50;37.80
68011;DHT22;54794;48.348;7.878;2022-08-03T12:04:15;37.60;36.70
68011;DHT22;54794;48.348;7.878;2022-08-03T12:06:57;37.70;36.80
68011;DHT22;54794;48.348;7.878;2022-08-03T12:09:25;37.80;35.30
68011;DHT22;54794;48.348;7.878;2022-08-03T12:11:52;37.80;35.80
68011;DHT22;54794;48.348;7.878;2022-08-03T12:14:27;37.90;35.90
68011;DHT22;54794;48.348;7.878;2022-08-03T12:17:15;37.90;35.80
68011;DHT22;54794;48.348;7.878;2022-08-03T12:19:43;38.00;35.60
68011;DHT22;54794;48.348;7.878;2022-08-03T12:22:10;38.10;34.40
68011;DHT22;54794;48.348;7.878;2022-08-03T12:24:41;38.10;35.00
68011;DHT22;54794;48.348;7.878;2022-08-03T12:27:12;38.20;34.10
68011;DHT22;54794;48.348;7.878;2022-08-03T12:29:50;38.20;34.80
68011;DHT22;54794;48.348;7.878;2022-08-03T12:32:25;38.30;35.00
68011;DHT22;54794;48.348;7.878;2022-08-03T12:34:53;38.40;34.10
68011;DHT22;54794;48.348;7.878;2022-08-03T12:37:26;38.60;33.50
68011;DHT22;54794;48.348;7.878;2022-08-03T12:39:57;38.60;33.60
68011;DHT22;54794;48.348;7.878;2022-08-03T12:42:38;38.60;33.90
68011;DHT22;54794;48.348;7.878;2022-08-03T12:45:22;38.70;33.10
68011;DHT22;54794;48.348;7.878;2022-08-03T12:47:58;38.80;33.10
68011;DHT22;54794;48.348;7.878;2022-08-03T12:50:30;38.90;33.50
68011;DHT22;54794;48.348;7.878;2022-08-03T12:53:03;39.00;33.60
68011;DHT22;54794;48.348;7.878;2022-08-03T12:55:38;39.10;33.20
68011;DHT22;54794;48.348;7.878;2022-08-03T12:58:30;39.20;32.80
68011;DHT22;54794;48.348;7.878;2022-08-03T13:01:01;39.20;32.60
68011;DHT22;54794;48.348;7.878;2022-08-03T13:03:39;39.30;32.90
68011;DHT22;54794;48.348;7.878;2022-08-03T13:06:22;39.40;32.40
68011;DHT22;54794;48.348;7.878;2022-08-03T13:09:04;39.60;32.00
68011;DHT22;54794;48.348;7.878;2022-08-03T13:11:33;39.60;32.50
68011;DHT22;54794;48.348;7.878;2022-08-03T13:14:20;39.70;33.00
68011;DHT22;54794;48.348;7.878;2022-08-03T13:16:49;39.80;32.70
68011;DHT22;54794;48.348;7.878;2022-08-03T13:19:16;39.90;32.20
68011;DHT22;54794;48.348;7.878;2022-08-03T13:21:44;40.00;31.90
68011;DHT22;54794;48.348;7.878;2022-08-03T13:24:29;40.00;32.50
68011;DHT22;54794;48.348;7.878;2022-08-03T13:26:57;40.10;31.30
68011;DHT22;54794;48.348;7.878;2022-08-03T13:29:25;40.10;31.00
68011;DHT22;54794;48.348;7.878;2022-08-03T13:31:52;40.10;30.40
68011;DHT22;54794;48.348;7.878;2022-08-03T13:34:19;40.00;30.60
68011;DHT22;54794;48.348;7.878;2022-08-03T13:36:50;40.00;31.30
68011;DHT22;54794;48.348;7.878;2022-08-03T13:39:34;39.90;30.80
68011;DHT22;54794;48.348;7.878;2022-08-03T13:42:21;39.90;30.80
68011;DHT22;54794;48.348;7.878;2022-08-03T13:44:48;39.90;31.30
68011;DHT22;54794;48.348;7.878;2022-08-03T13:47:15;40.00;31.10
68011;DHT22;54794;48.348;7.878;2022-08-03T13:49:42;40.00;31.00
68011;DHT22;54794;48.348;7.878;2022-08-03T13:52:25;40.10;31.70
68011;DHT22;54794;48.348;7.878;2022-08-03T13:54:52;40.20;30.70
68011;DHT22;54794;48.348;7.878;2022-08-03T13:57:18;40.30;31.10
68011;DHT22;54794;48.348;7.878;2022-08-03T14:00:06;40.30;31.80
68011;DHT22;54794;48.348;7.878;2022-08-03T14:02:33;40.40;31.40
68011;DHT22;54794;48.348;7.878;2022-08-03T14:05:00;40.50;30.90
68011;DHT22;54794;48.348;7.878;2022-08-03T14:07:27;40.60;31.00
68011;DHT22;54794;48.348;7.878;2022-08-03T14:09:54;40.60;30.10
68011;DHT22;54794;48.348;7.878;2022-08-03T14:12:22;40.70;29.90
68011;DHT22;54794;48.348;7.878;2022-08-03T14:14:49;40.70;30.30
68011;DHT22;54794;48.348;7.878;2022-08-03T14:17:16;40.80;29.80
68011;DHT22;54794;48.348;7.878;2022-08-03T14:19:43;40.80;29.80
68011;DHT22;54794;48.348;7.878;2022-08-03T14:22:19;40.80;29.60
68011;DHT22;54794;48.348;7.878;2022-08-03T14:24:47;40.90;30.10
68011;DHT22;54794;48.348;7.878;2022-08-03T14:27:15;41.00;29.90
68011;DHT22;54794;48.348;7.878;2022-08-03T14:29:42;41.00;29.80
68011;DHT22;54794;48.348;7.878;2022-08-03T14:32:09;41.10;30.00
68011;DHT22;54794;48.348;7.878;2022-08-03T14:34:39;41.10;29.50
68011;DHT22;54794;48.348;7.878;2022-08-03T14:37:06;41.20;29.40
68011;DHT22;54794;48.348;7.878;2022-08-03T14:39:33;41.20;30.00
68011;DHT22;54794;48.348;7.878;2022-08-03T14:42:20;41.30;29.20
68011;DHT22;54794;48.348;7.878;2022-08-03T14:44:47;41.30;29.20
68011;DHT22;54794;48.348;7.878;2022-08-03T14:47:14;41.30;28.90
68011;DHT22;54794;48.348;7.878;2022-08-03T14:49:41;41.30;28.90
68011;DHT22;54794;48.348;7.878;2022-08-03T14:52:29;41.30;29.10
68011;DHT22;54794;48.348;7.878;2022-08-03T14:54:57;41.30;29.30
68011;DHT22;54794;48.348;7.878;2022-08-03T14:57:25;41.30;28.90
68011;DHT22;54794;48.348;7.878;2022-08-03T14:59:52;41.30;29.10
68011;DHT22;54794;48.348;7.878;2022-08-03T15:02:23;41.40;28.90
68011;DHT22;54794;48.348;7.878;2022-08-03T15:04:51;41.40;28.60
68011;DHT22;54794;48.348;7.878;2022-08-03T15:07:18;41.40;28.90
68011;DHT22;54794;48.348;7.878;2022-08-03T15:09:46;41.50;28.90
68011;DHT22;54794;48.348;7.878;2022-08-03T15:12:13;41.50;28.90
68011;DHT22;54794;48.348;7.878;2022-08-03T15:14:40;41.50;28.70
68011;DHT22;54794;48.348;7.878;2022-08-03T15:17:07;41.50;28.20
68011;DHT22;54794;48.348;7.878;2022-08-03T15:19:34;41.50;28.00
68011;DHT22;54794;48.348;7.878;2022-08-03T15:22:21;41.50;28.30
68011;DHT22;54794;48.348;7.878;2022-08-03T15:25:03;41.50;28.20
68011;DHT22;54794;48.348;7.878;2022-08-03T15:27:51;41.40;27.70
68011;DHT22;54794;48.348;7.878;2022-08-03T15:30:30;41.30;28.30
68011;DHT22;54794;48.348;7.878;2022-08-03T15:33:02;41.20;28.00
68011;DHT22;54794;48.348;7.878;2022-08-03T15:35:29;41.20;28.20
68011;DHT22;54794;48.348;7.878;2022-08-03T15:37:56;41.20;28.00
68011;DHT22;54794;48.348;7.878;2022-08-03T15:40:23;41.10;28.10
68011;DHT22;54794;48.348;7.878;2022-08-03T15:42:49;41.10;28.00
68011;DHT22;54794;48.348;7.878;2022-08-03T15:45:16;41.00;28.30
68011;DHT22;54794;48.348;7.878;2022-08-03T15:47:46;41.00;28.50
68011;DHT22;54794;48.348;7.878;2022-08-03T15:50:13;41.00;28.30
68011;DHT22;54794;48.348;7.878;2022-08-03T15:52:40;41.00;28.00
68011;DHT22;54794;48.348;7.878;2022-08-03T15:55:07;41.00;28.10
68011;DHT22;54794;48.348;7.878;2022-08-03T15:57:42;41.00;27.90
68011;DHT22;54794;48.348;7.878;2022-08-03T16:00:29;41.00;28.20
68011;DHT22;54794;48.348;7.878;2022-08-03T16:02:59;41.00;28.20
68011;DHT22;54794;48.348;7.878;2022-08-03T16:05:27;41.00;28.10
68011;DHT22;54794;48.348;7.878;2022-08-03T16:07:54;41.00;28.30
68011;DHT22;54794;48.348;7.878;2022-08-03T16:10:30;41.00;28.20
68011;DHT22;54794;48.348;7.878;2022-08-03T16:12:57;41.00;27.90
68011;DHT22;54794;48.348;7.878;2022-08-03T16:15:26;41.00;28.20
68011;DHT22;54794;48.348;7.878;2022-08-03T16:17:53;41.00;28.10
68011;DHT22;54794;48.348;7.878;2022-08-03T16:20:20;41.00;28.00
68011;DHT22;54794;48.348;7.878;2022-08-03T16:23:04;41.00;28.00
68011;DHT22;54794;48.348;7.878;2022-08-03T16:25:41;40.90;28.00
68011;DHT22;54794;48.348;7.878;2022-08-03T16:28:15;40.90;27.80
68011;DHT22;54794;48.348;7.878;2022-08-03T16:30:44;40.90;27.90
68011;DHT22;54794;48.348;7.878;2022-08-03T16:33:13;40.90;27.90
68011;DHT22;54794;48.348;7.878;2022-08-03T16:35:44;40.90;27.80
68011;DHT22;54794;48.348;7.878;2022-08-03T16:38:12;40.80;27.90
68011;DHT22;54794;48.348;7.878;2022-08-03T16:40:45;40.70;27.50